sensor_id;sensor_type;location;lat;lon;timestamp;pressure;altitude;pressure_sealevel;temperature;humidity
46211;BME280;52144;48.040;-1.594;2023-02-04T00:00:24;103272.88;;;13.20;67.44
46211;BME280;52144;48.040;-1.594;2023-02-04T00:02:52;103280.91;;;13.21;66.47
46211;BME280;52144;48.040;-1.594;2023-02-04T00:05:22;103279.09;;;13.20;66.19
46211;BME280;52144;48.040;-1.594;2023-02-04T00:07:49;103277.25;;;13.25;66.05
46211;BME280;52144;48.040;-1.594;2023-02-04T00:10:17;103276.38;;;13.25;66.44
46211;BME280;52144;48.040;-1.594;2023-02-04T00:12:45;103274.63;;;13.22;66.41
46211;BME280;52144;48.040;-1.594;2023-02-04T00:15:13;103265.72;;;13.20;66.45
46211;BME280;52144;48.040;-1.594;2023-02-04T00:17:41;103271.06;;;13.20;67.14
46211;BME280;52144;48.040;-1.594;2023-02-04T00:20:09;103267.50;;;13.21;66.41
46211;BME280;52144;48.040;-1.594;2023-02-04T00:22:38;103268.56;;;13.11;67.20
46211;BME280;52144;48.040;-1.594;2023-02-04T00:25:07;103272.97;;;13.15;67.37
46211;BME280;52144;48.040;-1.594;2023-02-04T00:27:35;103267.59;;;13.17;67.46
46211;BME280;52144;48.040;-1.594;2023-02-04T00:30:03;103265.88;;;13.11;66.63
46211;BME280;52144;48.040;-1.594;2023-02-04T00:32:31;103264.47;;;12.87;68.09
46211;BME280;52144;48.040;-1.594;2023-02-04T00:34:58;103265.16;;;13.00;69.08
46211;BME280;52144;48.040;-1.594;2023-02-04T00:37:27;103276.13;;;12.84;66.63
46211;BME280;52144;48.040;-1.594;2023-02-04T00:39:56;103270.47;;;13.03;67.16
46211;BME280;52144;48.040;-1.594;2023-02-04T00:42:24;103266.13;;;12.94;67.21
46211;BME280;52144;48.040;-1.594;2023-02-04T00:44:52;103268.75;;;12.99;67.56
46211;BME280;52144;48.040;-1.594;2023-02-04T00:47:20;103262.53;;;12.97;67.92
46211;BME280;52144;48.040;-1.594;2023-02-04T00:49:47;103268.69;;;13.02;68.13
46211;BME280;52144;48.040;-1.594;2023-02-04T00:52:15;103265.91;;;13.08;67.37
46211;BME280;52144;48.040;-1.594;2023-02-04T00:54:43;103264.94;;;13.14;66.51
46211;BME280;52144;48.040;-1.594;2023-02-04T00:57:12;103265.03;;;13.09;67.41
46211;BME280;52144;48.040;-1.594;2023-02-04T00:59:40;103267.63;;;13.12;66.46
46211;BME280;52144;48.040;-1.594;2023-02-04T01:02:08;103266.78;;;13.10;66.13
46211;BME280;52144;48.040;-1.594;2023-02-04T01:04:35;103265.16;;;13.00;66.50
46211;BME280;52144;48.040;-1.594;2023-02-04T01:07:03;103266.13;;;12.96;66.73
46211;BME280;52144;48.040;-1.594;2023-02-04T01:09:31;103268.84;;;12.93;66.89
46211;BME280;52144;48.040;-1.594;2023-02-04T01:11:59;103273.19;;;13.01;67.00
46211;BME280;52144;48.040;-1.594;2023-02-04T01:14:28;103266.84;;;13.07;66.98
46211;BME280;52144;48.040;-1.594;2023-02-04T01:16:56;103266.78;;;13.10;66.60
46211;BME280;52144;48.040;-1.594;2023-02-04T01:19:24;103273.00;;;13.12;67.96
46211;BME280;52144;48.040;-1.594;2023-02-04T01:21:52;103264.28;;;12.99;67.07
46211;BME280;52144;48.040;-1.594;2023-02-04T01:24:20;103274.38;;;12.80;68.50
46211;BME280;52144;48.040;-1.594;2023-02-04T01:26:47;103273.38;;;12.88;67.43
46211;BME280;52144;48.040;-1.594;2023-02-04T01:29:15;103266.22;;;12.88;67.29
46211;BME280;52144;48.040;-1.594;2023-02-04T01:31:44;103270.50;;;13.00;66.69
46211;BME280;52144;48.040;-1.594;2023-02-04T01:34:12;103270.59;;;12.94;66.64
46211;BME280;52144;48.040;-1.594;2023-02-04T01:36:40;103279.59;;;12.88;67.03
46211;BME280;52144;48.040;-1.594;2023-02-04T01:39:08;103276.88;;;12.93;67.70
46211;BME280;52144;48.040;-1.594;2023-02-04T01:41:35;103276.91;;;12.91;68.52
46211;BME280;52144;48.040;-1.594;2023-02-04T01:44:03;103278.56;;;12.98;67.55
46211;BME280;52144;48.040;-1.594;2023-02-04T01:46:31;103281.22;;;13.00;66.88
46211;BME280;52144;48.040;-1.594;2023-02-04T01:49:05;103292.00;;;12.97;66.96
46211;BME280;52144;48.040;-1.594;2023-02-04T01:51:34;103283.97;;;12.97;66.99
46211;BME280;52144;48.040;-1.594;2023-02-04T01:54:02;103292.88;;;12.97;67.60
46211;BME280;52144;48.040;-1.594;2023-02-04T01:56:30;103288.25;;;13.07;67.05
46211;BME280;52144;48.040;-1.594;2023-02-04T01:58:58;103295.66;;;12.90;68.49
46211;BME280;52144;48.040;-1.594;2023-02-04T02:01:34;103300.91;;;12.96;67.47
46211;BME280;52144;48.040;-1.594;2023-02-04T02:04:04;103298.25;;;12.94;67.51
46211;BME280;52144;48.040;-1.594;2023-02-04T02:06:32;103299.97;;;12.98;67.65
46211;BME280;52144;48.040;-1.594;2023-02-04T02:09:00;103293.94;;;12.85;67.47
46211;BME280;52144;48.040;-1.594;2023-02-04T02:11:28;103293.84;;;12.92;68.51
46211;BME280;52144;48.040;-1.594;2023-02-04T02:13:56;103295.63;;;12.93;67.69
46211;BME280;52144;48.040;-1.594;2023-02-04T02:16:25;103293.91;;;12.89;68.54
46211;BME280;52144;48.040;-1.594;2023-02-04T02:18:52;103287.72;;;12.83;68.64
46211;BME280;52144;48.040;-1.594;2023-02-04T02:21:30;103284.16;;;12.81;67.91
46211;BME280;52144;48.040;-1.594;2023-02-04T02:24:24;103277.97;;;12.79;67.29
46211;BME280;52144;48.040;-1.594;2023-02-04T02:26:53;103281.41;;;12.86;67.34
46211;BME280;52144;48.040;-1.594;2023-02-04T02:29:22;103276.56;;;12.51;68.13
46211;BME280;52144;48.040;-1.594;2023-02-04T02:31:50;103278.63;;;12.30;69.71
46211;BME280;52144;48.040;-1.594;2023-02-04T02:34:18;103281.09;;;12.45;68.92
46211;BME280;52144;48.040;-1.594;2023-02-04T02:36:46;103285.28;;;12.68;68.70
46211;BME280;52144;48.040;-1.594;2023-02-04T02:39:15;103278.91;;;12.77;68.85
46211;BME280;52144;48.040;-1.594;2023-02-04T02:41:43;103269.03;;;12.80;67.76
46211;BME280;52144;48.040;-1.594;2023-02-04T02:44:12;103275.78;;;12.42;69.02
46211;BME280;52144;48.040;-1.594;2023-02-04T02:46:40;103271.50;;;12.29;70.01
46211;BME280;52144;48.040;-1.594;2023-02-04T02:49:13;103276.63;;;12.48;68.67
46211;BME280;52144;48.040;-1.594;2023-02-04T02:51:42;103272.84;;;12.64;68.27
46211;BME280;52144;48.040;-1.594;2023-02-04T02:54:20;103280.69;;;12.76;68.45
46211;BME280;52144;48.040;-1.594;2023-02-04T02:56:50;103276.16;;;12.80;69.06
46211;BME280;52144;48.040;-1.594;2023-02-04T02:59:18;103281.50;;;12.81;68.99
46211;BME280;52144;48.040;-1.594;2023-02-04T03:01:48;103276.47;;;12.60;69.22
46211;BME280;52144;48.040;-1.594;2023-02-04T03:04:19;103281.66;;;12.72;69.66
46211;BME280;52144;48.040;-1.594;2023-02-04T03:06:48;103282.53;;;12.71;69.48
46211;BME280;52144;48.040;-1.594;2023-02-04T03:09:17;103284.31;;;12.72;70.50
46211;BME280;52144;48.040;-1.594;2023-02-04T03:11:47;103290.53;;;12.74;69.67
46211;BME280;52144;48.040;-1.594;2023-02-04T03:14:15;103281.72;;;12.66;70.32
46211;BME280;52144;48.040;-1.594;2023-02-04T03:16:43;103290.56;;;12.71;69.85
46211;BME280;52144;48.040;-1.594;2023-02-04T03:19:13;103289.00;;;12.55;70.23
46211;BME280;52144;48.040;-1.594;2023-02-04T03:21:41;103291.69;;;12.53;71.08
46211;BME280;52144;48.040;-1.594;2023-02-04T03:24:09;103289.94;;;12.54;72.39
46211;BME280;52144;48.040;-1.594;2023-02-04T03:26:37;103296.09;;;12.59;70.83
46211;BME280;52144;48.040;-1.594;2023-02-04T03:29:07;103292.56;;;12.55;71.07
46211;BME280;52144;48.040;-1.594;2023-02-04T03:31:35;103290.97;;;12.39;72.63
46211;BME280;52144;48.040;-1.594;2023-02-04T03:34:04;103288.41;;;12.31;72.88
46211;BME280;52144;48.040;-1.594;2023-02-04T03:36:32;103285.56;;;12.43;73.42
46211;BME280;52144;48.040;-1.594;2023-02-04T03:39:00;103289.94;;;12.54;71.71
46211;BME280;52144;48.040;-1.594;2023-02-04T03:41:28;103290.97;;;12.40;72.92
46211;BME280;52144;48.040;-1.594;2023-02-04T03:43:56;103290.91;;;12.43;73.96
46211;BME280;52144;48.040;-1.594;2023-02-04T03:46:25;103290.81;;;12.53;72.95
46211;BME280;52144;48.040;-1.594;2023-02-04T03:48:54;103279.25;;;12.52;72.86
46211;BME280;52144;48.040;-1.594;2023-02-04T03:51:21;103283.72;;;12.52;73.77
46211;BME280;52144;48.040;-1.594;2023-02-04T03:53:49;103285.44;;;12.56;74.75
46211;BME280;52144;48.040;-1.594;2023-02-04T03:56:17;103284.53;;;12.55;75.07
46211;BME280;52144;48.040;-1.594;2023-02-04T03:58:45;103282.88;;;12.45;74.52
46211;BME280;52144;48.040;-1.594;2023-02-04T04:01:12;103282.00;;;12.46;74.23
46211;BME280;52144;48.040;-1.594;2023-02-04T04:03:42;103290.91;;;12.43;74.24
46211;BME280;52144;48.040;-1.594;2023-02-04T04:06:09;103296.41;;;12.31;74.67
46211;BME280;52144;48.040;-1.594;2023-02-04T04:08:37;103295.53;;;12.34;75.52
46211;BME280;52144;48.040;-1.594;2023-02-04T04:11:05;103298.16;;;12.35;75.78
46211;BME280;52144;48.040;-1.594;2023-02-04T04:13:33;103295.53;;;12.31;75.38
46211;BME280;52144;48.040;-1.594;2023-02-04T04:16:01;103291.19;;;12.23;77.57
46211;BME280;52144;48.040;-1.594;2023-02-04T04:18:30;103302.03;;;12.10;76.47
46211;BME280;52144;48.040;-1.594;2023-02-04T04:21:00;103288.91;;;11.87;75.53
46211;BME280;52144;48.040;-1.594;2023-02-04T04:23:28;103298.69;;;11.89;76.15
46211;BME280;52144;48.040;-1.594;2023-02-04T04:25:55;103291.59;;;11.80;74.73
46211;BME280;52144;48.040;-1.594;2023-02-04T04:28:23;103293.41;;;11.81;75.83
46211;BME280;52144;48.040;-1.594;2023-02-04T04:30:51;103296.03;;;11.91;77.28
46211;BME280;52144;48.040;-1.594;2023-02-04T04:33:19;103301.25;;;12.01;76.99
46211;BME280;52144;48.040;-1.594;2023-02-04T04:35:47;103295.81;;;12.08;76.98
46211;BME280;52144;48.040;-1.594;2023-02-04T04:38:16;103289.75;;;11.95;78.31
46211;BME280;52144;48.040;-1.594;2023-02-04T04:40:43;103290.72;;;11.80;79.31
46211;BME280;52144;48.040;-1.594;2023-02-04T04:43:12;103294.25;;;11.85;79.56
46211;BME280;52144;48.040;-1.594;2023-02-04T04:45:39;103293.25;;;11.98;79.52
46211;BME280;52144;48.040;-1.594;2023-02-04T04:48:07;103289.69;;;11.96;78.24
46211;BME280;52144;48.040;-1.594;2023-02-04T04:50:35;103298.69;;;11.86;78.70
46211;BME280;52144;48.040;-1.594;2023-02-04T04:53:03;103303.94;;;11.98;78.26
46211;BME280;52144;48.040;-1.594;2023-02-04T04:55:33;103306.47;;;12.11;78.51
46211;BME280;52144;48.040;-1.594;2023-02-04T04:58:01;103300.16;;;12.18;78.36
46211;BME280;52144;48.040;-1.594;2023-02-04T05:00:29;103300.16;;;12.19;77.73
46211;BME280;52144;48.040;-1.594;2023-02-04T05:02:57;103301.97;;;12.16;78.07
46211;BME280;52144;48.040;-1.594;2023-02-04T05:05:25;103303.78;;;12.11;78.35
46211;BME280;52144;48.040;-1.594;2023-02-04T05:07:53;103296.63;;;12.16;78.50
46211;BME280;52144;48.040;-1.594;2023-02-04T05:10:21;103297.59;;;12.09;76.38
46211;BME280;52144;48.040;-1.594;2023-02-04T05:12:50;103297.69;;;11.99;74.75
46211;BME280;52144;48.040;-1.594;2023-02-04T05:15:18;103298.69;;;11.86;74.32
46211;BME280;52144;48.040;-1.594;2023-02-04T05:17:45;103290.84;;;11.68;76.56
46211;BME280;52144;48.040;-1.594;2023-02-04T05:20:13;103295.31;;;11.69;77.06
46211;BME280;52144;48.040;-1.594;2023-02-04T05:22:41;103294.44;;;11.63;77.43
46211;BME280;52144;48.040;-1.594;2023-02-04T05:25:09;103293.59;;;11.61;77.09
46211;BME280;52144;48.040;-1.594;2023-02-04T05:27:37;103297.06;;;11.73;77.30
46211;BME280;52144;48.040;-1.594;2023-02-04T05:30:08;103303.16;;;11.85;75.63
46211;BME280;52144;48.040;-1.594;2023-02-04T05:32:36;103300.66;;;11.69;75.62
46211;BME280;52144;48.040;-1.594;2023-02-04T05:35:05;103299.63;;;11.82;76.51
46211;BME280;52144;48.040;-1.594;2023-02-04T05:37:33;103301.31;;;11.92;74.73
46211;BME280;52144;48.040;-1.594;2023-02-04T05:40:01;103304.06;;;11.83;75.61
46211;BME280;52144;48.040;-1.594;2023-02-04T05:42:28;103307.31;;;12.16;75.27
46211;BME280;52144;48.040;-1.594;2023-02-04T05:44:56;103314.47;;;12.15;74.54
46211;BME280;52144;48.040;-1.594;2023-02-04T05:47:25;103315.56;;;11.94;75.45
46211;BME280;52144;48.040;-1.594;2023-02-04T05:49:53;103317.50;;;11.74;76.67
46211;BME280;52144;48.040;-1.594;2023-02-04T05:52:21;103322.16;;;11.52;77.26
46211;BME280;52144;48.040;-1.594;2023-02-04T05:54:49;103320.16;;;11.77;76.82
46211;BME280;52144;48.040;-1.594;2023-02-04T05:57:16;103322.75;;;11.91;77.40
46211;BME280;52144;48.040;-1.594;2023-02-04T05:59:44;103319.25;;;11.79;77.53
46211;BME280;52144;48.040;-1.594;2023-02-04T06:02:12;103327.38;;;11.67;77.71
46211;BME280;52144;48.040;-1.594;2023-02-04T06:04:41;103322.28;;;11.36;80.02
46211;BME280;52144;48.040;-1.594;2023-02-04T06:07:10;103328.50;;;11.37;80.54
46211;BME280;52144;48.040;-1.594;2023-02-04T06:09:38;103320.59;;;11.28;80.89
46211;BME280;52144;48.040;-1.594;2023-02-04T06:12:06;103323.88;;;11.57;79.83
46211;BME280;52144;48.040;-1.594;2023-02-04T06:14:35;103332.03;;;11.40;80.54
46211;BME280;52144;48.040;-1.594;2023-02-04T06:17:03;103336.41;;;11.51;80.47
46211;BME280;52144;48.040;-1.594;2023-02-04T06:19:31;103332.91;;;11.44;80.98
46211;BME280;52144;48.040;-1.594;2023-02-04T06:22:00;103341.97;;;11.20;82.91
46211;BME280;52144;48.040;-1.594;2023-02-04T06:24:28;103338.41;;;11.24;81.85
46211;BME280;52144;48.040;-1.594;2023-02-04T06:26:56;103343.63;;;11.38;81.64
46211;BME280;52144;48.040;-1.594;2023-02-04T06:29:24;103338.25;;;11.44;80.49
46211;BME280;52144;48.040;-1.594;2023-02-04T06:31:51;103337.28;;;11.50;81.45
46211;BME280;52144;48.040;-1.594;2023-02-04T06:34:19;103339.03;;;11.57;81.98
46211;BME280;52144;48.040;-1.594;2023-02-04T06:36:47;103344.25;;;11.71;81.67
46211;BME280;52144;48.040;-1.594;2023-02-04T06:39:16;103336.19;;;11.74;83.63
46211;BME280;52144;48.040;-1.594;2023-02-04T06:41:44;103328.28;;;11.64;82.38
46211;BME280;52144;48.040;-1.594;2023-02-04T06:44:12;103333.53;;;11.75;83.24
46211;BME280;52144;48.040;-1.594;2023-02-04T06:46:40;103336.34;;;11.58;84.60
46211;BME280;52144;48.040;-1.594;2023-02-04T06:49:07;103332.81;;;11.56;85.07
46211;BME280;52144;48.040;-1.594;2023-02-04T06:51:35;103346.16;;;11.56;85.66
46211;BME280;52144;48.040;-1.594;2023-02-04T06:54:03;103338.22;;;11.47;86.14
46211;BME280;52144;48.040;-1.594;2023-02-04T06:56:32;103332.75;;;11.62;85.99
46211;BME280;52144;48.040;-1.594;2023-02-04T06:59:00;103339.03;;;11.54;86.14
46211;BME280;52144;48.040;-1.594;2023-02-04T07:01:29;103337.38;;;11.42;86.79
46211;BME280;52144;48.040;-1.594;2023-02-04T07:03:56;103337.34;;;11.43;86.69
46211;BME280;52144;48.040;-1.594;2023-02-04T07:06:24;103337.44;;;11.33;87.25
46211;BME280;52144;48.040;-1.594;2023-02-04T07:08:52;103336.56;;;11.34;87.45
46211;BME280;52144;48.040;-1.594;2023-02-04T07:11:20;103347.31;;;11.18;90.13
46211;BME280;52144;48.040;-1.594;2023-02-04T07:13:49;103349.03;;;11.29;89.42
46211;BME280;52144;48.040;-1.594;2023-02-04T07:16:17;103352.78;;;11.00;92.71
46211;BME280;52144;48.040;-1.594;2023-02-04T07:18:44;103353.63;;;11.05;93.51
46211;BME280;52144;48.040;-1.594;2023-02-04T07:21:12;103349.13;;;11.13;94.45
46211;BME280;52144;48.040;-1.594;2023-02-04T07:23:40;103350.88;;;11.23;91.40
46211;BME280;52144;48.040;-1.594;2023-02-04T07:26:07;103352.66;;;11.17;92.51
46211;BME280;52144;48.040;-1.594;2023-02-04T07:28:35;103353.50;;;11.27;91.38
46211;BME280;52144;48.040;-1.594;2023-02-04T07:31:04;103351.69;;;11.27;92.46
46211;BME280;52144;48.040;-1.594;2023-02-04T07:33:32;103342.72;;;11.39;92.56
46211;BME280;52144;48.040;-1.594;2023-02-04T07:36:00;103341.94;;;11.28;91.71
46211;BME280;52144;48.040;-1.594;2023-02-04T07:38:28;103343.69;;;11.30;92.15
46211;BME280;52144;48.040;-1.594;2023-02-04T07:40:56;103349.03;;;11.29;92.09
46211;BME280;52144;48.040;-1.594;2023-02-04T07:43:24;103346.28;;;11.39;91.73
46211;BME280;52144;48.040;-1.594;2023-02-04T07:45:52;103346.28;;;11.39;91.96
46211;BME280;52144;48.040;-1.594;2023-02-04T07:48:21;103335.63;;;11.35;91.04
46211;BME280;52144;48.040;-1.594;2023-02-04T07:50:49;103342.78;;;11.36;92.04
46211;BME280;52144;48.040;-1.594;2023-02-04T07:53:17;103335.44;;;11.58;92.09
46211;BME280;52144;48.040;-1.594;2023-02-04T07:55:44;103345.31;;;11.51;89.70
46211;BME280;52144;48.040;-1.594;2023-02-04T07:58:12;103346.13;;;11.61;89.95
46211;BME280;52144;48.040;-1.594;2023-02-04T08:00:40;103339.84;;;11.62;89.51
46211;BME280;52144;48.040;-1.594;2023-02-04T08:03:08;103349.59;;;11.71;89.08
46211;BME280;52144;48.040;-1.594;2023-02-04T08:05:37;103349.53;;;11.77;88.45
46211;BME280;52144;48.040;-1.594;2023-02-04T08:08:05;103349.50;;;11.83;88.87
46211;BME280;52144;48.040;-1.594;2023-02-04T08:10:32;103350.28;;;11.94;88.75
46211;BME280;52144;48.040;-1.594;2023-02-04T08:13:00;103360.16;;;11.84;87.85
46211;BME280;52144;48.040;-1.594;2023-02-04T08:15:28;103348.53;;;11.93;88.58
46211;BME280;52144;48.040;-1.594;2023-02-04T08:17:56;103351.22;;;11.90;87.29
46211;BME280;52144;48.040;-1.594;2023-02-04T08:20:24;103352.88;;;12.02;87.44
46211;BME280;52144;48.040;-1.594;2023-02-04T08:22:53;103351.28;;;11.82;84.81
46211;BME280;52144;48.040;-1.594;2023-02-04T08:25:21;103349.59;;;11.69;84.34
46211;BME280;52144;48.040;-1.594;2023-02-04T08:27:49;103355.91;;;11.60;83.77
46211;BME280;52144;48.040;-1.594;2023-02-04T08:30:17;103351.41;;;11.65;84.02
46211;BME280;52144;48.040;-1.594;2023-02-04T08:32:45;103361.22;;;11.67;84.23
46211;BME280;52144;48.040;-1.594;2023-02-04T08:35:12;103367.38;;;11.70;84.63
46211;BME280;52144;48.040;-1.594;2023-02-04T08:37:40;103364.56;;;11.92;84.96
46211;BME280;52144;48.040;-1.594;2023-02-04T08:40:10;103366.38;;;11.91;84.89
46211;BME280;52144;48.040;-1.594;2023-02-04T08:42:38;103361.72;;;12.10;86.02
46211;BME280;52144;48.040;-1.594;2023-02-04T08:45:07;103365.19;;;12.18;85.68
46211;BME280;52144;48.040;-1.594;2023-02-04T08:47:35;103375.75;;;12.32;85.50
46211;BME280;52144;48.040;-1.594;2023-02-04T08:50:03;103369.53;;;12.30;84.04
46211;BME280;52144;48.040;-1.594;2023-02-04T08:52:36;103375.63;;;12.41;84.78
46211;BME280;52144;48.040;-1.594;2023-02-04T08:55:05;103380.00;;;12.52;84.46
46211;BME280;52144;48.040;-1.594;2023-02-04T08:57:34;103381.75;;;12.54;83.66
46211;BME280;52144;48.040;-1.594;2023-02-04T09:00:03;103390.53;;;12.64;81.57
46211;BME280;52144;48.040;-1.594;2023-02-04T09:02:31;103387.03;;;12.59;81.32
46211;BME280;52144;48.040;-1.594;2023-02-04T09:04:58;103381.28;;;12.15;81.94
46211;BME280;52144;48.040;-1.594;2023-02-04T09:07:26;103379.50;;;12.13;81.48
46211;BME280;52144;48.040;-1.594;2023-02-04T09:09:54;103387.31;;;12.31;81.90
46211;BME280;52144;48.040;-1.594;2023-02-04T09:12:22;103387.16;;;12.48;81.19
46211;BME280;52144;48.040;-1.594;2023-02-04T09:14:51;103396.06;;;12.50;81.00
46211;BME280;52144;48.040;-1.594;2023-02-04T09:17:19;103402.44;;;12.35;79.97
46211;BME280;52144;48.040;-1.594;2023-02-04T09:19:46;103406.09;;;12.27;83.17
46211;BME280;52144;48.040;-1.594;2023-02-04T09:22:14;103399.66;;;12.44;84.58
46211;BME280;52144;48.040;-1.594;2023-02-04T09:24:42;103410.28;;;12.54;83.78
46211;BME280;52144;48.040;-1.594;2023-02-04T09:27:10;103409.44;;;12.49;84.98
46211;BME280;52144;48.040;-1.594;2023-02-04T09:29:37;103408.50;;;12.53;83.29
46211;BME280;52144;48.040;-1.594;2023-02-04T09:32:07;103401.41;;;12.49;83.40
46211;BME280;52144;48.040;-1.594;2023-02-04T09:34:34;103405.72;;;12.62;84.29
46211;BME280;52144;48.040;-1.594;2023-02-04T09:37:02;103419.13;;;12.57;84.65
46211;BME280;52144;48.040;-1.594;2023-02-04T09:39:30;103415.91;;;12.26;87.12
46211;BME280;52144;48.040;-1.594;2023-02-04T09:41:58;103426.78;;;12.04;87.75
46211;BME280;52144;48.040;-1.594;2023-02-04T09:44:27;103420.53;;;12.09;88.22
46211;BME280;52144;48.040;-1.594;2023-02-04T09:46:57;103425.88;;;12.09;88.58
46211;BME280;52144;48.040;-1.594;2023-02-04T09:49:27;103434.94;;;11.88;89.70
46211;BME280;52144;48.040;-1.594;2023-02-04T09:51:55;103433.69;;;12.27;87.22
46211;BME280;52144;48.040;-1.594;2023-02-04T09:54:24;103428.13;;;12.52;86.20
46211;BME280;52144;48.040;-1.594;2023-02-04T09:56:52;103429.97;;;12.43;85.94
46211;BME280;52144;48.040;-1.594;2023-02-04T09:59:21;103432.03;;;12.18;86.64
46211;BME280;52144;48.040;-1.594;2023-02-04T10:01:53;103436.47;;;12.18;87.67
46211;BME280;52144;48.040;-1.594;2023-02-04T10:04:22;103441.19;;;11.91;89.30
46211;BME280;52144;48.040;-1.594;2023-02-04T10:06:51;103449.69;;;12.33;87.96
46211;BME280;52144;48.040;-1.594;2023-02-04T10:09:19;103454.84;;;12.53;86.93
46211;BME280;52144;48.040;-1.594;2023-02-04T10:11:47;103457.69;;;12.38;86.61
46211;BME280;52144;48.040;-1.594;2023-02-04T10:14:17;103459.94;;;11.77;91.11
46211;BME280;52144;48.040;-1.594;2023-02-04T10:16:50;103462.44;;;12.03;90.92
46211;BME280;52144;48.040;-1.594;2023-02-04T10:19:19;103457.97;;;12.06;89.88
46211;BME280;52144;48.040;-1.594;2023-02-04T10:21:47;103463.31;;;12.06;90.76
46211;BME280;52144;48.040;-1.594;2023-02-04T10:24:19;103458.91;;;12.00;91.19
46211;BME280;52144;48.040;-1.594;2023-02-04T10:26:48;103473.22;;;11.88;92.22
46211;BME280;52144;48.040;-1.594;2023-02-04T10:29:17;103477.66;;;11.92;92.20
46211;BME280;52144;48.040;-1.594;2023-02-04T10:31:47;103476.75;;;11.98;90.62
46211;BME280;52144;48.040;-1.594;2023-02-04T10:34:18;103481.00;;;12.22;90.90
46211;BME280;52144;48.040;-1.594;2023-02-04T10:36:49;103478.38;;;12.16;88.75
46211;BME280;52144;48.040;-1.594;2023-02-04T10:39:20;103479.19;;;12.26;88.77
46211;BME280;52144;48.040;-1.594;2023-02-04T10:41:49;103476.47;;;12.27;85.92
46211;BME280;52144;48.040;-1.594;2023-02-04T10:44:20;103477.22;;;12.43;86.04
46211;BME280;52144;48.040;-1.594;2023-02-04T10:46:57;103481.66;;;12.45;86.83
46211;BME280;52144;48.040;-1.594;2023-02-04T10:49:25;103486.81;;;12.65;86.15
46211;BME280;52144;48.040;-1.594;2023-02-04T10:51:53;103482.38;;;12.61;84.26
46211;BME280;52144;48.040;-1.594;2023-02-04T10:54:26;103488.97;;;12.25;84.94
46211;BME280;52144;48.040;-1.594;2023-02-04T10:56:59;103493.19;;;12.51;84.04
46211;BME280;52144;48.040;-1.594;2023-02-04T10:59:29;103493.88;;;12.73;83.77
46211;BME280;52144;48.040;-1.594;2023-02-04T11:02:00;103499.09;;;12.85;83.60
46211;BME280;52144;48.040;-1.594;2023-02-04T11:04:30;103493.66;;;12.90;82.94
46211;BME280;52144;48.040;-1.594;2023-02-04T11:06:58;103494.41;;;13.02;81.84
46211;BME280;52144;48.040;-1.594;2023-02-04T11:09:27;103500.59;;;13.09;81.61
46211;BME280;52144;48.040;-1.594;2023-02-04T11:11:56;103493.22;;;13.27;80.26
46211;BME280;52144;48.040;-1.594;2023-02-04T11:14:27;103488.16;;;13.05;81.56
46211;BME280;52144;48.040;-1.594;2023-02-04T11:16:56;103473.59;;;13.26;80.03
46211;BME280;52144;48.040;-1.594;2023-02-04T11:19:32;103493.59;;;12.99;81.63
46211;BME280;52144;48.040;-1.594;2023-02-04T11:22:07;103484.19;;;13.37;78.51
46211;BME280;52144;48.040;-1.594;2023-02-04T11:24:48;103487.94;;;13.20;78.00
46211;BME280;52144;48.040;-1.594;2023-02-04T11:27:22;103477.78;;;13.49;77.14
46211;BME280;52144;48.040;-1.594;2023-02-04T11:29:50;103482.94;;;13.61;76.33
46211;BME280;52144;48.040;-1.594;2023-02-04T11:32:30;103473.19;;;13.55;72.25
46211;BME280;52144;48.040;-1.594;2023-02-04T11:35:19;103478.25;;;13.10;77.60
46211;BME280;52144;48.040;-1.594;2023-02-04T11:37:48;103467.88;;;12.84;78.20
46211;BME280;52144;48.040;-1.594;2023-02-04T11:40:29;103465.91;;;12.98;74.92
46211;BME280;52144;48.040;-1.594;2023-02-04T11:42:59;103461.78;;;12.73;73.95
46211;BME280;52144;48.040;-1.594;2023-02-04T11:45:30;103461.91;;;12.59;76.63
46211;BME280;52144;48.040;-1.594;2023-02-04T11:48:01;103461.22;;;13.16;75.07
46211;BME280;52144;48.040;-1.594;2023-02-04T11:50:32;103462.13;;;13.16;72.28
46211;BME280;52144;48.040;-1.594;2023-02-04T11:53:00;103461.16;;;13.22;73.18
46211;BME280;52144;48.040;-1.594;2023-02-04T11:55:34;103453.38;;;13.02;72.35
46211;BME280;52144;48.040;-1.594;2023-02-04T11:58:02;103456.19;;;12.93;72.30
46211;BME280;52144;48.040;-1.594;2023-02-04T12:00:31;103459.81;;;12.89;72.01
46211;BME280;52144;48.040;-1.594;2023-02-04T12:03:01;103454.88;;;12.52;74.94
46211;BME280;52144;48.040;-1.594;2023-02-04T12:05:38;103454.97;;;12.42;73.20
46211;BME280;52144;48.040;-1.594;2023-02-04T12:08:11;103461.09;;;12.52;71.82
46211;BME280;52144;48.040;-1.594;2023-02-04T12:10:47;103465.97;;;12.94;71.47
46211;BME280;52144;48.040;-1.594;2023-02-04T12:13:17;103456.34;;;12.77;71.27
46211;BME280;52144;48.040;-1.594;2023-02-04T12:15:53;103459.03;;;12.76;72.00
46211;BME280;52144;48.040;-1.594;2023-02-04T12:18:22;103454.75;;;12.62;73.29
46211;BME280;52144;48.040;-1.594;2023-02-04T12:20:49;103455.97;;;13.07;71.63
46211;BME280;52144;48.040;-1.594;2023-02-04T12:23:17;103462.25;;;13.05;70.47
46211;BME280;52144;48.040;-1.594;2023-02-04T12:25:47;103466.66;;;13.13;70.52
46211;BME280;52144;48.040;-1.594;2023-02-04T12:28:15;103453.19;;;13.17;69.83
46211;BME280;52144;48.040;-1.594;2023-02-04T12:30:43;103457.50;;;13.31;69.65
46211;BME280;52144;48.040;-1.594;2023-02-04T12:33:11;103460.53;;;13.01;72.54
46211;BME280;52144;48.040;-1.594;2023-02-04T12:35:40;103459.66;;;13.01;70.82
46211;BME280;52144;48.040;-1.594;2023-02-04T12:38:08;103455.47;;;12.77;72.43
46211;BME280;52144;48.040;-1.594;2023-02-04T12:40:36;103452.03;;;12.65;71.10
46211;BME280;52144;48.040;-1.594;2023-02-04T12:43:06;103453.13;;;12.48;73.68
46211;BME280;52144;48.040;-1.594;2023-02-04T12:45:34;103451.84;;;12.82;72.25
46211;BME280;52144;48.040;-1.594;2023-02-04T12:48:03;103453.63;;;12.82;74.02